Time;durP1;ratioP1;P1;durP2;ratioP2;P2;SDS_P1;SDS_P2;PMS_P1;PMS_P2;Temp;Humidity;BMP_temperature;BMP_pressure;BME280_temperature;BME280_humidity;BME280_pressure;Samples;Min_cycle;Max_cycle;Signal;HPM_P1;HPM_P2
2023/05/06 00:00:21;;;;;;;;;;;;;;;14.00;100.00;96334.09;4993884;28;19941;-81
2023/05/06 00:02:47;;;;;;;;;;;;;;;13.97;100.00;96329.16;4989783;28;19950;-81
2023/05/06 00:05:17;;;;;;;;;;;;;;;13.89;100.00;96326.91;4988186;28;19959;-81
2023/05/06 00:07:43;;;;;;;;;;;;;;;13.88;100.00;96322.53;4991004;28;19943;-81
2023/05/06 00:10:10;;;;;;;;;;;;;;;13.84;100.00;96321.41;4992407;28;19938;-81
2023/05/06 00:12:37;;;;;;;;;;;;;;;13.83;100.00;96322.47;4999977;28;19935;-81
2023/05/06 00:15:05;;;;;;;;;;;;;;;13.82;100.00;96327.09;4990415;28;19956;-81
2023/05/06 00:17:31;;;;;;;;;;;;;;;13.81;100.00;96325.44;4991412;28;19942;-81
2023/05/06 00:19:58;;;;;;;;;;;;;;;13.75;100.00;96323.75;4991220;28;19951;-81
2023/05/06 00:22:27;;;;;;;;;;;;;;;13.68;100.00;96322.28;4987004;28;19992;-80
2023/05/06 00:24:53;;;;;;;;;;;;;;;13.63;100.00;96306.72;4984667;28;20051;-80
2023/05/06 00:27:20;;;;;;;;;;;;;;;13.58;100.00;96303.97;4994089;28;19979;-80
2023/05/06 00:29:47;;;;;;;;;;;;;;;13.53;100.00;96299.28;4995795;28;19947;-80
2023/05/06 00:32:14;;;;;;;;;;;;;;;13.60;100.00;96302.66;4990814;28;20091;-80
2023/05/06 00:34:40;;;;;;;;;;;;;;;13.68;100.00;96304.09;4987155;28;19958;-80
2023/05/06 00:37:07;;;;;;;;;;;;;;;13.74;100.00;96302.28;4989496;28;19941;-80
2023/05/06 00:39:36;;;;;;;;;;;;;;;13.64;100.00;96313.81;4993744;28;20026;-80
2023/05/06 00:42:03;;;;;;;;;;;;;;;13.57;100.00;96322.13;5008215;28;19949;-81
2023/05/06 00:44:30;;;;;;;;;;;;;;;13.59;100.00;96332.75;4984304;28;19947;-80
2023/05/06 00:46:58;;;;;;;;;;;;;;;13.63;100.00;96345.53;4994123;28;20037;-80
2023/05/06 00:49:24;;;;;;;;;;;;;;;13.70;100.00;96366.25;4992132;28;19947;-80
2023/05/06 00:51:52;;;;;;;;;;;;;;;13.74;100.00;96368.22;5010688;28;19967;-80
2023/05/06 00:54:19;;;;;;;;;;;;;;;13.77;100.00;96356.88;4993879;28;19942;-80
2023/05/06 00:56:47;;;;;;;;;;;;;;;13.76;100.00;96359.84;4991822;28;19945;-81
2023/05/06 00:59:14;;;;;;;;;;;;;;;13.75;100.00;96353.59;4991588;28;19946;-81
2023/05/06 01:01:41;;;;;;;;;;;;;;;13.76;100.00;96355.22;5007535;28;19984;-81
2023/05/06 01:04:07;;;;;;;;;;;;;;;13.78;100.00;96352.28;4991242;28;20242;-80
2023/05/06 01:06:39;;;;;;;;;;;;;;;13.82;100.00;96350.69;5003877;28;19966;-80
2023/05/06 01:09:10;;;;;;;;;;;;;;;13.84;100.00;96354.81;4988714;28;19960;-81
2023/05/06 01:11:41;;;;;;;;;;;;;;;13.87;100.00;96350.75;4989601;28;19945;-81
2023/05/06 01:14:14;;;;;;;;;;;;;;;13.86;100.00;96344.53;4990751;28;19947;-81
2023/05/06 01:16:43;;;;;;;;;;;;;;;13.91;100.00;96349.19;5003659;28;19959;-81
2023/05/06 01:19:15;;;;;;;;;;;;;;;13.86;100.00;96332.84;4992277;28;19960;-81
2023/05/06 01:21:46;;;;;;;;;;;;;;;13.82;100.00;96353.41;4997244;28;19958;-81
2023/05/06 01:24:14;;;;;;;;;;;;;;;13.75;100.00;96350.06;4987641;28;19944;-81
2023/05/06 01:26:42;;;;;;;;;;;;;;;13.66;100.00;96359.69;4989656;28;19949;-81
2023/05/06 01:29:09;;;;;;;;;;;;;;;13.57;100.00;96365.53;4991788;28;19946;-81
2023/05/06 01:31:38;;;;;;;;;;;;;;;13.56;100.00;96366.59;4990959;28;19953;-81
2023/05/06 01:34:09;;;;;;;;;;;;;;;13.56;100.00;96382.06;4991363;28;20017;-81
2023/05/06 01:36:39;;;;;;;;;;;;;;;13.60;100.00;96377.78;5004991;28;20415;-81
2023/05/06 01:39:09;;;;;;;;;;;;;;;13.63;100.00;96369.97;5006729;28;19944;-81
2023/05/06 01:41:39;;;;;;;;;;;;;;;13.63;100.00;96356.41;5007944;28;19954;-81
2023/05/06 01:44:07;;;;;;;;;;;;;;;13.53;100.00;96355.41;4993680;28;19945;-81
2023/05/06 01:46:35;;;;;;;;;;;;;;;13.44;100.00;96363.16;4993524;28;20042;-80
2023/05/06 01:49:05;;;;;;;332.20;308.67;;;;;;;13.52;100.00;96356.50;4992772;28;20441;-81
2023/05/06 01:51:34;;;;;;;958.97;877.17;;;;;;;13.55;100.00;96347.84;5007787;28;20192;-81
2023/05/06 01:54:02;;;;;;;60.57;54.43;;;;;;;13.54;100.00;96344.31;4993303;28;20200;-81
2023/05/06 01:56:30;;;;;;;424.57;387.27;;;;;;;13.54;100.00;96340.78;5007370;28;20224;-81
2023/05/06 01:58:58;;;;;;;710.07;652.77;;;;;;;13.48;100.00;96330.94;5006537;28;20246;-81
2023/05/06 02:01:25;;;;;;;4.70;3.03;;;;;;;13.42;100.00;96327.34;4991687;28;20298;-81
2023/05/06 02:03:52;;;;;;;5.13;3.23;;;;;;;13.37;100.00;96334.56;4993170;28;20203;-80
2023/05/06 02:06:19;;;;;;;;;;;;;;;13.41;100.00;96330.28;4992892;28;20236;-81
2023/05/06 02:08:46;;;;;;;;;;;;;;;13.42;100.00;96338.19;5010608;28;20009;-81
2023/05/06 02:11:19;;;;;;;5.28;3.70;;;;;;;13.43;100.00;96339.84;5003402;28;20481;-81
2023/05/06 02:13:48;;;;;;;5.30;3.30;;;;;;;13.42;100.00;96338.19;4993012;28;20214;-81
2023/05/06 02:16:16;;;;;;;3.60;3.03;;;;;;;13.40;100.00;96334.06;4992704;28;20256;-81
2023/05/06 02:18:44;;;;;;;3.60;3.00;;;;;;;13.32;100.00;96332.59;4995244;28;20204;-81
2023/05/06 02:21:11;;;;;;;4.10;3.17;;;;;;;13.32;100.00;96324.47;4991041;28;20264;-81
2023/05/06 02:23:38;;;;;;;3.63;3.00;;;;;;;13.39;100.00;96319.69;5008992;28;20204;-81
2023/05/06 02:26:05;;;;;;;3.30;2.90;;;;;;;13.44;100.00;96321.66;5009521;28;20208;-81
2023/05/06 02:28:33;;;;;;;3.87;2.97;;;;;;;13.51;100.00;96325.03;4992766;28;20265;-81
2023/05/06 02:31:00;;;;;;;5.50;2.50;;;;;;;13.55;100.00;96316.13;4993659;28;20203;-81
2023/05/06 02:33:28;;;;;;;2.97;2.40;;;;;;;13.58;100.00;96309.38;5006743;28;20204;-81
2023/05/06 02:35:55;;;;;;;8.57;2.70;;;;;;;13.53;100.00;96318.25;4993797;28;20230;-81
2023/05/06 02:38:23;;;;;;;5.40;2.70;;;;;;;13.49;100.00;96319.84;4999303;28;20271;-81
2023/05/06 02:40:50;;;;;;;2.60;2.40;;;;;;;13.56;100.00;96315.06;5003439;28;20225;-81
2023/05/06 02:43:17;;;;;;;6.13;2.20;;;;;;;13.53;100.00;96310.13;4992501;28;20246;-81
2023/05/06 02:45:44;;;;;;;2.70;2.17;;;;;;;13.58;100.00;96306.69;4997869;28;20210;-81
2023/05/06 02:48:11;;;;;;;2.90;2.67;;;;;;;13.47;100.00;96296.75;4992489;28;20207;-81
2023/05/06 02:50:40;;;;;;;2.60;2.40;;;;;;;13.45;100.00;96305.13;4988991;28;20203;-81
2023/05/06 02:53:07;;;;;;;3.53;2.70;;;;;;;13.49;100.00;96300.84;4989388;28;20222;-81
2023/05/06 02:55:35;;;;;;;4.10;2.60;;;;;;;13.53;100.00;96295.72;5008947;28;20247;-81
2023/05/06 02:58:02;;;;;;;5.57;2.90;;;;;;;13.44;100.00;96291.84;5006740;28;20227;-81
2023/05/06 03:00:29;;;;;;;4.83;2.63;;;;;;;13.36;100.00;96284.91;4992140;28;20199;-81
2023/05/06 03:02:56;;;;;;;4.57;2.70;;;;;;;13.36;100.00;96282.22;4991337;28;20302;-81
2023/05/06 03:05:23;;;;;;;6.07;3.80;;;;;;;13.39;100.00;96276.28;4986341;28;20276;-81
2023/05/06 03:07:52;;;;;;;3.03;2.73;;;;;;;13.38;100.00;96277.38;4991595;28;20203;-81
2023/05/06 03:10:20;;;;;;;5.50;2.80;;;;;;;13.41;100.00;96266.03;4991878;28;20326;-80
2023/05/06 03:12:47;;;;;;;6.07;2.67;;;;;;;13.45;100.00;96267.16;4991734;28;20204;-81
2023/05/06 03:15:14;;;;;;;2.63;2.27;;;;;;;13.42;100.00;96272.28;4992022;28;20230;-81
2023/05/06 03:17:41;;;;;;;2.80;2.60;;;;;;;13.47;100.00;96264.19;4992574;28;20203;-81
2023/05/06 03:20:09;;;;;;;2.83;2.40;;;;;;;13.48;100.00;96277.50;4993925;28;20318;-81
2023/05/06 03:22:41;;;;;;;2.60;2.40;;;;;;;13.43;100.00;96274.75;4981445;28;20203;-81
2023/05/06 03:25:09;;;;;;;2.87;2.57;;;;;;;13.39;100.00;96280.91;4993407;28;20207;-81
2023/05/06 03:27:39;;;;;;;2.77;2.57;;;;;;;13.40;100.00;96280.66;4993773;28;20203;-81
2023/05/06 03:30:14;;;;;;;6.10;2.60;;;;;;;13.40;100.00;96279.84;4992473;28;20199;-81
2023/05/06 03:32:41;;;;;;;4.90;2.87;;;;;;;13.47;100.00;96278.56;4991196;28;20227;-81
2023/05/06 03:35:11;;;;;;;5.00;2.83;;;;;;;13.43;100.00;96272.03;4990837;28;20203;-81
2023/05/06 03:37:40;;;;;;;4.73;2.50;;;;;;;13.48;100.00;96272.09;4980397;28;20211;-81
2023/05/06 03:40:09;;;;;;;2.70;2.33;;;;;;;13.42;100.00;96278.53;4992508;28;20215;-81
2023/05/06 03:42:37;;;;;;;3.47;2.80;;;;;;;13.43;100.00;96269.31;4991023;28;20187;-81
2023/05/06 03:45:06;;;;;;;9.33;2.50;;;;;;;13.42;100.00;96272.28;4990887;28;20192;-81
2023/05/06 03:47:34;;;;;;;3.83;2.63;;;;;;;13.40;100.00;96275.22;4988322;28;20359;-81
2023/05/06 03:50:02;;;;;;;5.63;2.50;;;;;;;13.39;100.00;96278.19;4988767;28;20228;-81
2023/05/06 03:52:32;;;;;;;5.23;2.60;;;;;;;13.40;100.00;96271.69;4991895;28;20200;-81
2023/05/06 03:55:00;;;;;;;5.50;2.80;;;;;;;13.38;100.00;96271.13;4992218;28;20210;-81
2023/05/06 03:57:30;;;;;;;2.70;2.50;;;;;;;13.37;100.00;96281.13;4989373;28;20269;-81
2023/05/06 03:59:58;;;;;;;3.30;2.43;;;;;;;13.32;100.00;96272.94;4986025;28;20216;-81
2023/05/06 04:02:28;;;;;;;3.67;3.10;;;;;;;13.36;100.00;96290.34;4990286;28;20295;-81
2023/05/06 04:04:56;;;;;;;6.17;2.90;;;;;;;13.38;100.00;96280.06;4990950;28;20203;-81
2023/05/06 04:07:23;;;;;;;7.17;2.87;;;;;;;13.37;100.00;96289.28;5007656;28;20210;-81
2023/05/06 04:09:51;;;;;;;4.10;2.70;;;;;;;13.34;100.00;96281.66;4984837;28;20243;-81
2023/05/06 04:12:18;;;;;;;3.40;2.87;;;;;;;13.24;100.00;96287.75;4989899;28;20203;-80
2023/05/06 04:14:48;;;;;;;5.37;3.10;;;;;;;13.21;100.00;96288.22;4990269;28;20215;-81
2023/05/06 04:17:15;;;;;;;4.57;2.90;;;;;;;13.22;100.00;96278.22;5001184;28;20219;-81
2023/05/06 04:19:43;;;;;;;3.50;2.60;;;;;;;13.30;100.00;96274.25;4990212;28;20215;-81
2023/05/06 04:22:10;;;;;;;4.30;3.00;;;;;;;13.30;100.00;96277.78;4993148;28;20203;-81
2023/05/06 04:24:38;;;;;;;4.30;3.07;;;;;;;13.33;100.00;96269.16;4993994;28;20294;-81
2023/05/06 04:27:06;;;;;;;2.97;2.70;;;;;;;13.37;100.00;96273.00;5008926;28;20199;-81
2023/05/06 04:29:33;;;;;;;3.70;2.50;;;;;;;13.43;100.00;96279.34;4997930;28;20235;-81
2023/05/06 04:32:06;;;;;;;5.43;2.57;;;;;;;13.38;100.00;96295.53;4988640;28;20199;-81
2023/05/06 04:34:35;;;;;;;3.73;2.80;;;;;;;13.43;100.00;96296.44;5007737;28;20213;-81
2023/05/06 04:37:03;;;;;;;3.37;2.60;;;;;;;13.47;100.00;96291.31;4991574;28;20231;-81
2023/05/06 04:39:38;;;;;;;3.43;2.83;;;;;;;13.45;100.00;96294.28;4990364;28;20200;-81
2023/05/06 04:42:06;;;;;;;3.17;2.80;;;;;;;13.45;100.00;96299.69;5000798;28;20225;-81
2023/05/06 04:44:41;;;;;;;5.07;3.47;;;;;;;13.44;100.00;96308.13;4988006;28;20286;-81
2023/05/06 04:47:12;;;;;;;4.10;3.03;;;;;;;13.41;100.00;96314.03;5004173;28;20204;-81
2023/05/06 04:49:43;;;;;;;3.33;2.60;;;;;;;13.37;100.00;96318.28;4991189;28;20204;-81
2023/05/06 04:52:10;;;;;;;5.20;3.60;;;;;;;13.40;100.00;96332.19;4994147;28;20227;-80
2023/05/06 04:54:38;;;;;;;6.37;3.40;;;;;;;13.43;100.00;96337.13;4988257;28;20300;-80
2023/05/06 04:57:06;;;;;;;3.67;2.87;;;;;;;13.49;100.00;96344.25;4990728;28;20323;-80
2023/05/06 04:59:34;;;;;;;4.23;2.90;;;;;;;13.54;100.00;96340.78;4990747;28;20199;-80
2023/05/06 05:02:03;;;;;;;4.73;2.87;;;;;;;13.49;100.00;96344.25;4990917;28;20203;-80
2023/05/06 05:04:32;;;;;;;3.80;3.40;;;;;;;13.53;100.00;96350.00;5008057;28;20234;-81
2023/05/06 05:06:59;;;;;;;6.93;3.80;;;;;;;13.44;100.00;96341.44;4993788;28;20240;-80
2023/05/06 05:09:27;;;;;;;5.33;3.33;;;;;;;13.42;100.00;96346.31;4991020;28;20262;-80
2023/05/06 05:11:54;;;;;;;6.03;3.80;;;;;;;13.48;100.00;96345.31;4991418;28;20208;-81
2023/05/06 05:14:21;;;;;;;4.00;3.57;;;;;;;13.53;100.00;96339.13;5004709;28;20220;-81
2023/05/06 05:16:48;;;;;;;4.40;3.03;;;;;;;13.58;100.00;96339.22;4984199;28;20235;-81
2023/05/06 05:19:15;;;;;;;6.53;3.60;;;;;;;13.51;100.00;96335.88;4995522;28;20199;-80
2023/05/06 05:21:43;;;;;;;5.67;3.40;;;;;;;13.48;100.00;96339.91;4997214;28;20200;-80
2023/05/06 05:24:13;;;;;;;7.30;3.60;;;;;;;13.45;100.00;96332.25;4991710;28;20215;-80
2023/05/06 05:26:40;;;;;;;5.03;3.50;;;;;;;13.50;100.00;96334.22;4992836;28;20207;-80
2023/05/06 05:29:08;;;;;;;9.73;3.90;;;;;;;13.55;100.00;96343.25;4979774;28;20235;-81
2023/05/06 05:31:36;;;;;;;3.67;3.33;;;;;;;13.50;100.00;96329.63;4989889;28;20291;-81
2023/05/06 05:34:04;;;;;;;3.83;3.50;;;;;;;13.47;100.00;96338.25;4992690;28;20203;-81
2023/05/06 05:36:31;;;;;;;5.20;3.33;;;;;;;13.43;100.00;96334.41;5000032;28;20326;-81
2023/05/06 05:39:02;;;;;;;5.03;3.30;;;;;;;13.38;100.00;96347.06;4989692;28;20205;-81
2023/05/06 05:41:32;;;;;;;;;;;;;;;13.34;100.00;96346.75;4991411;28;20207;-81
2023/05/06 05:43:59;;;;;;;;;;;;;;;13.41;100.00;96347.38;4992865;28;19949;-82
2023/05/06 05:46:27;;;;;;;;;;;;;;;13.45;100.00;96337.66;5009489;28;19953;-82
2023/05/06 05:48:55;;;;;;;;;;;;;;;13.50;100.00;96334.22;4990526;28;19951;-82
2023/05/06 05:51:23;;;;;;;;;;;;;;;13.54;100.00;96329.94;4998077;28;19964;-81
2023/05/06 05:53:52;;;;;;;;;;;;;;;13.59;100.00;96330.84;4993315;28;19970;-82
2023/05/06 05:56:21;;;;;;;;;;;;;;;13.62;100.00;96322.19;4993456;28;19977;-82
2023/05/06 05:58:48;;;;;;;;;;;;;;;13.60;100.00;96324.34;5001397;28;19953;-81
2023/05/06 06:01:16;;;;;;;7.57;6.18;;;;;;;13.58;100.00;96325.66;4993124;28;20413;-81
2023/05/06 06:03:43;;;;;;;7.17;6.37;;;;;;;13.59;100.00;96316.47;4989804;28;20212;-81
2023/05/06 06:06:11;;;;;;;8.87;6.93;;;;;;;13.59;100.00;96317.28;5009152;28;20235;-81
2023/05/06 06:08:38;;;;;;;8.13;5.50;;;;;;;13.60;100.00;96310.78;4993440;28;20224;-81
2023/05/06 06:11:06;;;;;;;10.33;7.30;;;;;;;13.66;100.00;96316.28;4988868;28;20227;-81
2023/05/06 06:13:42;;;;;;;5.43;4.20;;;;;;;13.62;100.00;96314.06;4990296;28;20203;-81
2023/05/06 06:16:09;;;;;;;4.40;3.47;;;;;;;13.54;100.00;96306.34;5005313;28;20254;-81
2023/05/06 06:18:36;;;;;;;5.43;3.53;;;;;;;13.50;100.00;96301.69;4994120;28;20238;-81
2023/05/06 06:21:03;;;;;;;5.63;3.50;;;;;;;13.48;100.00;96299.22;4992034;28;20274;-81
2023/05/06 06:23:30;;;;;;;4.10;3.43;;;;;;;13.49;100.00;96302.75;5006203;28;20297;-81
2023/05/06 06:25:58;;;;;;;5.37;4.10;;;;;;;13.46;100.00;96300.53;4990237;28;20211;-81
2023/05/06 06:28:26;;;;;;;3.37;3.07;;;;;;;13.52;100.00;96308.50;4992668;28;20196;-81
2023/05/06 06:30:55;;;;;;;4.87;3.27;;;;;;;13.63;100.00;96312.16;4991419;28;20255;-81
2023/05/06 06:33:22;;;;;;;4.47;3.97;;;;;;;13.64;100.00;96314.63;4987622;28;20215;-81
2023/05/06 06:35:48;;;;;;;;;;;;;;;13.67;100.00;96309.78;4989439;28;20203;-81
2023/05/06 06:38:15;;;;;;;;;;;;;;;13.70;100.00;96307.38;4986515;28;19970;-82
2023/05/06 06:40:42;;;;;;;;;;;;;;;13.76;100.00;96305.56;4993510;28;20023;-82
2023/05/06 06:43:09;;;;;;;;;;;;;;;13.78;100.00;96298.00;4990206;28;19954;-82
2023/05/06 06:45:50;;;;;;;;;;;;;;;13.81;100.00;96306.44;4992212;28;19965;-82
2023/05/06 06:48:18;;;;;;;;;;;;;;;13.84;100.00;96302.41;4995237;28;19953;-81
2023/05/06 06:50:45;;;;;;;;;;;;;;;13.79;100.00;96299.63;5007008;28;19949;-81
2023/05/06 06:53:13;;;;;;;;;;;;;;;13.77;100.00;96305.31;4989213;28;20060;-81
2023/05/06 06:55:42;;;;;;;;;;;;;;;13.76;100.00;96297.44;4991942;28;19946;-81
2023/05/06 06:58:09;;;;;;;;;;;;;;;13.77;100.00;96307.22;5012274;28;19973;-81
2023/05/06 07:00:36;;;;;;;;;;;;;;;13.76;100.00;96306.38;4991742;28;19947;-81
2023/05/06 07:03:03;;;;;;;;;;;;;;;13.73;100.00;96303.34;4992342;28;19953;-81
2023/05/06 07:05:31;;;;;;;;;;;;;;;13.68;100.00;96298.69;4989199;28;19965;-81
2023/05/06 07:07:58;;;;;;;;;;;;;;;13.67;100.00;96309.78;4976771;28;19969;-81
2023/05/06 07:10:25;;;;;;;;;;;;;;;13.64;100.00;96306.50;4992299;28;19956;-81
2023/05/06 07:12:52;;;;;;;;;;;;;;;13.66;100.00;96300.81;4992375;28;19958;-81
2023/05/06 07:15:19;;;;;;;;;;;;;;;13.69;100.00;96300.31;4988189;28;19979;-81
2023/05/06 07:17:46;;;;;;;;;;;;;;;13.78;100.00;96308.84;4994041;28;19969;-81
2023/05/06 07:20:13;;;;;;;;;;;;;;;14.00;100.00;96296.09;4991851;28;19955;-81
2023/05/06 07:22:42;;;;;;;;;;;;;;;14.16;100.00;96314.22;4993215;28;19956;-81
2023/05/06 07:25:09;;;;;;;;;;;;;;;14.51;100.00;96305.69;4991123;28;20013;-81
2023/05/06 07:27:36;;;;;;;;;;;;;;;14.63;100.00;96302.81;4987252;28;19949;-81
2023/05/06 07:30:03;;;;;;;;;;;;;;;14.72;100.00;96309.41;4992531;28;19953;-80
2023/05/06 07:32:30;;;;;;;;;;;;;;;14.86;100.00;96302.47;4988549;28;19953;-81
2023/05/06 07:34:57;;;;;;;;;;;;;;;14.93;100.00;96305.81;4983618;28;20392;-81
2023/05/06 07:37:24;;;;;;;;;;;;;;;14.77;100.00;96306.75;4984957;28;19972;-81
2023/05/06 07:39:52;;;;;;;;;;;;;;;14.64;100.00;96307.16;4984506;28;19958;-81
2023/05/06 07:42:19;;;;;;;;;;;;;;;14.72;100.00;96309.41;4997091;28;20466;-81
2023/05/06 07:44:46;;;;;;;;;;;;;;;14.97;100.00;96309.63;4986441;28;19953;-81
2023/05/06 07:47:17;;;;;;;654.03;606.88;;;;;;;15.25;100.00;96310.41;4993155;28;20438;-81
2023/05/06 07:49:44;;;;;;;4.27;2.40;;;;;;;15.47;100.00;96311.94;5004685;28;20201;-80
2023/05/06 07:52:11;;;;;;;4.07;2.83;;;;;;;15.84;100.00;96303.75;4992846;28;20238;-80
2023/05/06 07:54:39;;;;;;;2.73;2.33;;;;;;;15.72;100.00;96313.22;4993795;28;20223;-80
2023/05/06 07:57:08;;;;;;;5.00;2.97;;;;;;;16.11;100.00;96310.94;4993288;28;20223;-80
2023/05/06 07:59:35;;;;;;;5.97;2.67;;;;;;;16.20;100.00;96321.06;4991238;28;20227;-80
2023/05/06 08:02:02;;;;;;;5.20;3.13;;;;;;;16.47;100.00;96309.19;4988280;28;20207;-80
2023/05/06 08:04:30;;;;;;;4.37;2.57;;;;;;;16.53;100.00;96314.38;4987453;28;20203;-80
2023/05/06 08:06:57;;;;;;;2.53;2.33;;;;;;;16.73;100.00;96301.91;4991295;28;20263;-80
2023/05/06 08:09:24;;;;;;;2.97;2.10;;;;;;;16.92;100.00;96303.03;5006812;28;20228;-80
2023/05/06 08:11:53;;;;;;;4.03;1.93;;;;;;;16.91;100.00;96299.50;5010344;28;20226;-80
2023/05/06 08:14:21;;;;;;;5.20;2.33;;;;;;;17.11;100.00;96295.94;4989920;28;20210;-80
2023/05/06 08:16:50;;;;;;;2.13;1.93;;;;;;;17.07;100.00;96304.94;4987009;28;20204;-80
2023/05/06 08:19:17;;;;;;;7.20;3.33;;;;;;;17.14;100.00;96298.13;4988371;28;20207;-80
2023/05/06 08:21:45;;;;;;;2.40;2.20;;;;;;;17.12;100.00;96294.84;4990045;28;20214;-80
2023/05/06 08:24:12;;;;;;;2.50;2.27;;;;;;;17.29;100.00;96295.38;4989385;28;20203;-80
2023/05/06 08:26:40;;;;;;;3.03;2.10;;;;;;;17.52;100.00;96299.47;4975590;28;20207;-80
2023/05/06 08:29:07;;;;;;;2.93;2.73;;;;;;;17.51;100.00;96305.22;5008671;28;20203;-80
2023/05/06 08:31:36;;;;;;;3.70;3.40;;;;;;;17.68;100.00;96301.13;4994599;28;20207;-80
2023/05/06 08:34:03;;;;;;;2.10;2.00;;;;;;;17.83;100.00;96305.72;4990811;28;20208;-80
2023/05/06 08:36:31;;;;;;;2.03;1.60;;;;;;;17.71;100.00;96297.81;5008408;28;20235;-80
2023/05/06 08:38:57;;;;;;;2.20;1.77;;;;;;;17.85;100.00;96299.97;4992356;28;20236;-80
2023/05/06 08:41:26;;;;;;;2.07;1.60;;;;;;;17.75;100.00;96295.34;5008371;28;20203;-80
2023/05/06 08:43:55;;;;;;;3.50;1.70;;;;;;;17.55;100.00;96298.91;4982755;28;20195;-80
2023/05/06 08:46:22;;;;;;;2.83;2.20;;;;;;;17.33;100.00;96304.69;5009770;28;20214;-80
2023/05/06 08:48:51;;;;;;;2.67;1.80;;;;;;;17.35;100.00;96290.75;5011324;28;20262;-80
2023/05/06 08:51:21;;;;;;;4.60;1.97;;;;;;;17.22;100.00;96289.41;5000401;28;20253;-80
2023/05/06 08:53:50;;;;;;;2.93;2.30;;;;;;;17.20;100.00;96280.66;5008609;28;20238;-80
2023/05/06 08:56:18;;;;;;;2.57;2.00;;;;;;;17.26;100.00;96282.31;4994997;28;20219;-80
2023/05/06 08:58:46;;;;;;;1.90;1.70;;;;;;;17.14;100.00;96276.31;4996122;28;20314;-80
2023/05/06 09:01:14;;;;;;;2.10;1.90;;;;;;;17.21;100.00;96279.56;4986822;28;20232;-80
2023/05/06 09:03:42;;;;;;;3.70;2.43;;;;;;;17.34;100.00;96281.75;4997672;28;20202;-80
2023/05/06 09:06:12;;;;;;;4.47;2.87;;;;;;;17.43;100.00;96282.03;4995193;28;20310;-80
2023/05/06 09:08:39;;;;;;;3.37;2.13;;;;;;;17.68;100.00;96281.19;5012591;28;20273;-80
2023/05/06 09:11:20;;;;;;;3.27;2.20;;;;;;;17.86;100.00;96277.88;4998012;28;20204;-80
2023/05/06 09:13:48;;;;;;;2.10;1.83;;;;;;;18.18;100.00;96284.84;4997686;28;20207;-80
2023/05/06 09:16:28;;;;;;;2.30;1.80;;;;;;;18.32;100.00;96280.38;5006493;28;20246;-80
2023/05/06 09:18:55;;;;;;;2.37;1.90;;;;;;;18.22;100.00;96275.78;4990664;28;20223;-80
2023/05/06 09:21:30;;;;;;;3.20;1.77;;;;;;;18.14;100.00;96269.00;4994481;28;20206;-80
2023/05/06 09:23:58;;;;;;;6.20;1.90;;;;;;;18.14;100.00;96269.00;4992666;28;20203;-80
2023/05/06 09:26:26;;;;;;;2.73;2.27;;;;;;;18.06;100.00;96269.56;4991732;28;20219;-79
2023/05/06 09:28:54;;;;;;;2.60;1.90;;;;;;;18.19;100.00;96264.63;4996260;28;20261;-79
2023/05/06 09:31:21;;;;;;;1.70;1.60;;;;;;;18.10;100.00;96267.13;4997247;28;20216;-79
2023/05/06 09:33:48;;;;;;;2.60;1.73;;;;;;;17.85;100.00;96253.56;5009140;28;20227;-79
2023/05/06 09:36:15;;;;;;;1.80;1.70;;;;;;;18.04;100.00;96268.22;4993806;28;20202;-79
2023/05/06 09:38:43;;;;;;;2.00;1.80;;;;;;;18.39;100.00;96262.59;4984094;28;20454;-79
2023/05/06 09:41:12;;;;;;;2.07;1.80;;;;;;;18.73;100.00;96253.66;5010632;28;20196;-79
2023/05/06 09:43:43;;;;;;;4.53;2.63;;;;;;;18.96;100.00;96260.34;4998587;28;20215;-79
2023/05/06 09:46:11;;;;;;;4.45;2.50;;;;;;;19.00;100.00;96258.66;4993965;28;20211;-79
2023/05/06 09:48:39;;;;;;;7.33;2.87;;;;;;;18.82;100.00;96247.31;4988706;28;20213;-79
2023/05/06 09:51:07;;;;;;;4.10;2.65;;;;;;;18.90;100.00;96248.59;4985852;28;20208;-79
2023/05/06 09:53:36;;;;;;;4.45;2.95;;;;;;;19.07;100.00;96238.06;4991873;28;20200;-79
2023/05/06 09:56:06;;;;;;;5.22;3.47;;;;;;;19.25;100.00;96236.53;5009945;28;20223;-79
2023/05/06 09:58:33;;;;;;;3.40;2.83;;;;;;;19.41;100.00;96221.59;4990185;28;20216;-79
2023/05/06 10:01:03;;;;;;;4.03;2.78;;;;;;;19.86;100.00;96222.25;4993279;28;20210;-79
2023/05/06 10:03:31;;;;;;;4.03;2.80;;;;;;;20.17;100.00;96218.00;4994281;28;20204;-80
2023/05/06 10:06:01;;;;;;;4.20;2.83;;;;;;;20.28;100.00;96214.03;5002165;28;20254;-79
2023/05/06 10:08:29;;;;;;;4.32;2.50;;;;;;;20.22;100.00;96212.47;4992746;28;20223;-79
2023/05/06 10:10:56;;;;;;;2.75;2.25;;;;;;;20.45;100.00;96199.84;4996812;28;20295;-80
2023/05/06 10:13:25;;;;;;;2.70;2.15;;;;;;;20.54;100.00;96199.97;4996375;28;20207;-79
2023/05/06 10:15:52;;;;;;;3.83;1.85;;;;;;;20.73;100.00;96198.88;4994118;28;20207;-79
2023/05/06 10:18:21;;;;;;;3.72;2.10;;;;;;;20.86;98.66;96199.22;4994646;28;20211;-80
2023/05/06 10:20:50;;;;;;;3.08;1.67;;;;;;;20.94;98.55;96187.53;4994444;28;20258;-79
2023/05/06 10:23:24;;;;;;;1.95;1.70;;;;;;;21.10;93.81;96194.41;5003954;28;20282;-80
2023/05/06 10:25:53;;;;;;;1.63;1.52;;;;;;;21.17;90.71;96185.81;4993032;28;20218;-79
2023/05/06 10:28:21;;;;;;;5.07;1.75;;;;;;;21.34;90.18;96183.34;5007877;28;20204;-79
2023/05/06 10:30:52;;;;;;;4.07;1.60;;;;;;;21.51;88.54;96180.81;4992053;28;20216;-80
2023/05/06 10:33:22;;;;;;;3.10;1.42;;;;;;;21.72;87.40;96173.78;5015932;28;20238;-79
2023/05/06 10:35:55;;;;;;;1.48;1.38;;;;;;;21.87;86.91;96161.66;5011804;28;20231;-79
2023/05/06 10:38:28;;;;;;;2.97;1.85;;;;;;;21.93;85.81;96156.88;5002619;28;20238;-79
2023/05/06 10:40:55;;;;;;;1.40;1.30;;;;;;;22.03;83.53;96154.75;4994048;28;20207;-79
2023/05/06 10:43:25;;;;;;;2.15;1.50;;;;;;;22.22;82.91;96146.38;4989598;28;20199;-80
2023/05/06 10:46:08;;;;;;;1.40;1.30;;;;;;;22.33;82.96;96146.97;4993210;28;20243;-80
2023/05/06 10:48:37;;;;;;;2.25;2.00;;;;;;;22.41;82.73;96141.53;4991147;28;20269;-80
2023/05/06 10:51:23;;;;;;;2.58;1.80;;;;;;;22.52;80.74;96140.19;4990933;28;20287;-79
2023/05/06 10:54:06;;;;;;;2.83;1.30;;;;;;;22.52;80.97;96140.19;4976451;28;20220;-80
2023/05/06 10:56:34;;;;;;;3.28;1.58;;;;;;;22.51;84.34;96127.53;4989198;28;20223;-80
2023/05/06 10:59:07;;;;;;;1.50;1.40;;;;;;;22.48;84.44;96125.41;4992009;28;20227;-80
2023/05/06 11:01:38;;;;;;;1.60;1.50;;;;;;;22.60;83.45;96127.63;4992211;28;20254;-79
2023/05/06 11:04:08;;;;;;;2.42;1.40;;;;;;;22.50;79.10;96123.16;5010615;28;20231;-80
2023/05/06 11:06:37;;;;;;;1.60;1.50;;;;;;;22.48;80.67;96130.91;4989231;28;20235;-80
2023/05/06 11:09:06;;;;;;;2.05;1.50;;;;;;;22.48;80.19;96132.84;4980880;28;20228;-79
2023/05/06 11:12:00;;;;;;;3.45;1.60;;;;;;;22.51;83.62;96124.78;4972795;28;20264;-79
2023/05/06 11:14:34;;;;;;;1.95;1.48;;;;;;;22.54;83.41;96117.88;4987295;28;20216;-79
2023/05/06 11:17:03;;;;;;;1.77;1.60;;;;;;;22.60;83.83;96122.94;4988733;28;20204;-80
2023/05/06 11:19:32;;;;;;;2.65;1.70;;;;;;;22.53;82.72;96125.31;5000761;28;20235;-80
2023/05/06 11:22:00;;;;;;;1.80;1.70;;;;;;;22.60;84.11;96116.59;4988594;28;20213;-80
2023/05/06 11:24:29;;;;;;;2.63;1.80;;;;;;;22.78;84.39;96121.16;4983941;28;20221;-80
2023/05/06 11:26:58;;;;;;;3.95;2.00;;;;;;;22.96;83.28;96119.31;4971444;28;20208;-80
2023/05/06 11:29:27;;;;;;;2.13;1.70;;;;;;;23.01;81.98;96114.47;4992752;28;20286;-79
2023/05/06 11:31:54;;;;;;;3.47;2.08;;;;;;;23.17;83.00;96109.38;4991572;28;20287;-79
2023/05/06 11:34:26;;;;;;;1.90;1.80;;;;;;;23.22;81.13;96114.75;4989383;28;20200;-80
2023/05/06 11:36:59;;;;;;;3.35;2.00;;;;;;;23.37;81.33;96103.34;4980192;28;20207;-79
2023/05/06 11:39:29;;;;;;;3.17;1.83;;;;;;;23.19;78.92;96107.13;4982350;28;20220;-79
2023/05/06 11:41:57;;;;;;;3.10;1.80;;;;;;;23.16;80.37;96101.44;4981771;28;20197;-79
2023/05/06 11:44:29;;;;;;;2.58;2.35;;;;;;;23.29;81.54;96100.53;4983965;28;20208;-82
2023/05/06 11:47:00;;;;;;;2.85;2.00;;;;;;;23.49;79.43;96096.41;4977561;28;20302;-82
2023/05/06 11:49:29;;;;;;;3.25;2.30;;;;;;;23.74;80.89;96104.78;4979436;28;20219;-82